Time;durP1;ratioP1;P1;durP2;ratioP2;P2;SDS_P1;SDS_P2;PMS_P1;PMS_P2;Temp;Humidity;BMP_temperature;BMP_pressure;BME280_temperature;BME280_humidity;BME280_pressure;Samples;Min_cycle;Max_cycle;Signal;HPM_P1;HPM_P2
2024/01/03 00:01:59;;;;;;;11.00;10.50;;;;;;;;;;5028570;28;20022;-61
2024/01/03 00:04:27;;;;;;;10.70;10.20;;;;;;;;;;5033591;28;20017;-61
2024/01/03 00:06:52;;;;;;;10.80;10.30;;;;;;;;;;5029422;28;20074;-61
2024/01/03 00:09:17;;;;;;;10.68;10.18;;;;;;;;;;5027892;28;20398;-62
2024/01/03 00:11:45;;;;;;;10.77;10.27;;;;;;;;;;5033191;28;20033;-61
2024/01/03 00:14:22;;;;;;;11.27;10.68;;;;;;;;;;5035557;28;20436;-62
2024/01/03 00:16:47;;;;;;;11.30;10.70;;;;;;;;;;5027437;28;20056;-62
2024/01/03 00:19:16;;;;;;;11.43;10.82;;;;;;;;;;5029359;28;20045;-61
2024/01/03 00:21:43;;;;;;;10.90;10.40;;;;;;;;;;5030712;28;20049;-61
2024/01/03 00:24:11;;;;;;;11.48;10.88;;;;;;;;;;5033813;28;20097;-61
2024/01/03 00:26:39;;;;;;;11.10;10.60;;;;;;;;;;5031926;28;20477;-62
2024/01/03 00:29:05;;;;;;;11.23;10.70;;;;;;;;;;5034031;28;20052;-61
2024/01/03 00:31:37;;;;;;;11.60;11.00;;;;;;;;;;5029540;28;20026;-61
2024/01/03 00:34:04;;;;;;;10.93;10.43;;;;;;;;;;5026247;28;20044;-62
2024/01/03 00:36:29;;;;;;;10.93;10.43;;;;;;;;;;5033434;28;20032;-61
2024/01/03 00:38:56;;;;;;;11.05;10.55;;;;;;;;;;5029735;28;20691;-61
2024/01/03 00:41:21;;;;;;;10.80;10.30;;;;;;;;;;5030282;28;20549;-61
2024/01/03 00:43:46;;;;;;;11.00;10.50;;;;;;;;;;5030990;28;20104;-61
2024/01/03 00:46:12;;;;;;;11.15;10.57;;;;;;;;;;5029808;28;20025;-61
2024/01/03 00:48:38;;;;;;;10.50;10.00;;;;;;;;;;5032695;28;20397;-60
2024/01/03 00:51:03;;;;;;;10.98;10.43;;;;;;;;;;5026913;28;20037;-61
2024/01/03 00:53:29;;;;;;;11.00;10.50;;;;;;;;;;5032377;28;20075;-62
2024/01/03 00:55:55;;;;;;;10.85;10.35;;;;;;;;;;5030509;28;20032;-61
2024/01/03 00:58:20;;;;;;;11.43;10.82;;;;;;;;;;5028656;28;20036;-61
2024/01/03 01:00:46;;;;;;;11.40;10.80;;;;;;;;;;5030478;28;20064;-61
2024/01/03 01:03:12;;;;;;;11.00;10.50;;;;;;;;;;5031320;28;20021;-61
2024/01/03 01:05:37;;;;;;;11.18;10.60;;;;;;;;;;5031450;28;20033;-61
2024/01/03 01:08:03;;;;;;;11.68;11.07;;;;;;;;;;5029591;28;20036;-63
2024/01/03 01:10:28;;;;;;;11.50;10.90;;;;;;;;;;5029740;28;20032;-61
2024/01/03 01:12:55;;;;;;;10.68;10.18;;;;;;;;;;5034440;28;20025;-61
2024/01/03 01:15:20;;;;;;;10.70;10.20;;;;;;;;;;5033573;28;20462;-61
2024/01/03 01:17:46;;;;;;;10.98;10.48;;;;;;;;;;5024768;28;20125;-62
2024/01/03 01:20:11;;;;;;;11.60;11.00;;;;;;;;;;5032219;28;20444;-60
2024/01/03 01:22:36;;;;;;;11.63;11.02;;;;;;;;;;5027772;28;20030;-61
2024/01/03 01:25:02;;;;;;;11.15;10.60;;;;;;;;;;5038264;28;20033;-62
2024/01/03 01:27:27;;;;;;;11.75;11.15;;;;;;;;;;5033804;28;20108;-60
2024/01/03 01:29:52;;;;;;;11.02;10.50;;;;;;;;;;5033325;28;20021;-62
2024/01/03 01:32:18;;;;;;;11.60;11.00;;;;;;;;;;5032180;28;20018;-60
2024/01/03 01:34:43;;;;;;;10.88;10.38;;;;;;;;;;5038302;28;20092;-62
2024/01/03 01:37:14;;;;;;;11.05;10.55;;;;;;;;;;5034252;28;20021;-60
2024/01/03 01:39:40;;;;;;;11.10;10.50;;;;;;;;;;5031380;28;20103;-61
2024/01/03 01:42:05;;;;;;;11.00;10.48;;;;;;;;;;5033621;28;20100;-60
2024/01/03 01:44:31;;;;;;;10.70;10.20;;;;;;;;;;5034902;28;20120;-60
2024/01/03 01:46:57;;;;;;;10.75;10.25;;;;;;;;;;5034809;28;20017;-61
2024/01/03 01:49:22;;;;;;;10.35;9.85;;;;;;;;;;5033287;28;20104;-61
2024/01/03 01:51:48;;;;;;;10.77;10.27;;;;;;;;;;5033252;28;20029;-61
2024/01/03 01:54:13;;;;;;;10.25;9.75;;;;;;;;;;5034749;28;20095;-60
2024/01/03 01:56:39;;;;;;;11.13;10.55;;;;;;;;;;5031009;28;20626;-62
2024/01/03 01:59:05;;;;;;;11.00;10.50;;;;;;;;;;5019309;28;20555;-61
2024/01/03 02:01:31;;;;;;;11.85;11.25;;;;;;;;;;5029686;28;20428;-61
2024/01/03 02:03:56;;;;;;;11.07;10.52;;;;;;;;;;5033068;28;20039;-60
2024/01/03 02:06:22;;;;;;;10.70;10.20;;;;;;;;;;5030218;28;20056;-61
2024/01/03 02:08:47;;;;;;;11.00;10.50;;;;;;;;;;5036828;28;20053;-61
2024/01/03 02:11:13;;;;;;;10.40;9.90;;;;;;;;;;5028337;28;20428;-62
2024/01/03 02:13:38;;;;;;;10.95;10.45;;;;;;;;;;5027872;28;20030;-61
2024/01/03 02:16:04;;;;;;;11.35;10.75;;;;;;;;;;5035147;28;20104;-61
2024/01/03 02:18:29;;;;;;;10.82;10.32;;;;;;;;;;5028353;28;20064;-61
2024/01/03 02:20:56;;;;;;;10.90;10.35;;;;;;;;;;5030094;28;20485;-61
2024/01/03 02:23:21;;;;;;;10.82;10.32;;;;;;;;;;5032544;28;20026;-61
2024/01/03 02:25:47;;;;;;;10.30;9.80;;;;;;;;;;5041500;28;20017;-61
2024/01/03 02:28:12;;;;;;;10.93;10.43;;;;;;;;;;5032311;28;20489;-62
2024/01/03 02:30:37;;;;;;;11.20;10.60;;;;;;;;;;5030959;28;20028;-60
2024/01/03 02:33:03;;;;;;;10.75;10.25;;;;;;;;;;5026578;28;20021;-60
2024/01/03 02:35:28;;;;;;;10.95;10.45;;;;;;;;;;5029763;28;20156;-61
2024/01/03 02:37:54;;;;;;;10.48;9.98;;;;;;;;;;5033442;28;20037;-62
2024/01/03 02:40:19;;;;;;;10.82;10.32;;;;;;;;;;5032790;28;20029;-61
2024/01/03 02:42:44;;;;;;;10.27;9.77;;;;;;;;;;5027661;28;20113;-61
2024/01/03 02:45:10;;;;;;;10.40;9.90;;;;;;;;;;5030321;28;20025;-61
2024/01/03 02:47:36;;;;;;;11.10;10.57;;;;;;;;;;5032152;28;20025;-61
2024/01/03 02:50:01;;;;;;;11.20;10.63;;;;;;;;;;5027194;28;20097;-61
2024/01/03 02:52:26;;;;;;;11.25;10.65;;;;;;;;;;5027976;28;20457;-61
2024/01/03 02:54:52;;;;;;;10.40;9.90;;;;;;;;;;5022363;28;20041;-61
2024/01/03 02:57:17;;;;;;;10.50;10.00;;;;;;;;;;5030558;28;20037;-62
2024/01/03 02:59:42;;;;;;;11.38;10.77;;;;;;;;;;5030544;28;20060;-60
2024/01/03 03:02:08;;;;;;;11.63;11.02;;;;;;;;;;5029812;28;20021;-60
2024/01/03 03:04:33;;;;;;;11.00;10.50;;;;;;;;;;5034114;28;20022;-62
2024/01/03 03:06:58;;;;;;;10.68;10.18;;;;;;;;;;5034274;28;20021;-60
2024/01/03 03:09:24;;;;;;;10.50;10.00;;;;;;;;;;5033748;28;20133;-62
2024/01/03 03:11:49;;;;;;;10.68;10.18;;;;;;;;;;5033753;28;20515;-62
2024/01/03 03:14:15;;;;;;;10.82;10.32;;;;;;;;;;5031647;28;20024;-62
2024/01/03 03:16:40;;;;;;;10.57;10.07;;;;;;;;;;5029749;28;20052;-62
2024/01/03 03:19:06;;;;;;;10.50;10.00;;;;;;;;;;5036892;28;20626;-62
2024/01/03 03:21:31;;;;;;;11.30;10.70;;;;;;;;;;5030885;28;20032;-61
2024/01/03 03:23:57;;;;;;;11.00;10.50;;;;;;;;;;5031754;28;20384;-62
2024/01/03 03:26:22;;;;;;;10.90;10.40;;;;;;;;;;5032787;28;20017;-61
2024/01/03 03:28:47;;;;;;;11.02;10.50;;;;;;;;;;5032478;28;20033;-61
2024/01/03 03:31:13;;;;;;;10.48;9.98;;;;;;;;;;5028618;28;20067;-62
2024/01/03 03:33:38;;;;;;;11.98;11.35;;;;;;;;;;5030896;28;20022;-61
2024/01/03 03:36:10;;;;;;;10.65;10.15;;;;;;;;;;5026469;28;20045;-62
2024/01/03 03:38:36;;;;;;;11.05;10.55;;;;;;;;;;5031961;28;20103;-61
2024/01/03 03:41:01;;;;;;;10.65;10.15;;;;;;;;;;5034715;28;20112;-61
2024/01/03 03:43:26;;;;;;;10.90;10.40;;;;;;;;;;5029654;28;20048;-62
2024/01/03 03:45:52;;;;;;;10.98;10.48;;;;;;;;;;5035001;28;20017;-61
2024/01/03 03:48:17;;;;;;;11.57;10.98;;;;;;;;;;5034453;28;20025;-62
2024/01/03 03:50:42;;;;;;;11.15;10.60;;;;;;;;;;5032435;28;20025;-62
2024/01/03 03:53:10;;;;;;;11.10;10.57;;;;;;;;;;5033172;28;20052;-61
2024/01/03 03:55:39;;;;;;;11.40;10.80;;;;;;;;;;5032633;28;20029;-61
2024/01/03 03:58:04;;;;;;;10.68;10.18;;;;;;;;;;5033268;28;20036;-62
2024/01/03 04:00:30;;;;;;;10.70;10.20;;;;;;;;;;5035159;28;20389;-61
2024/01/03 04:02:55;;;;;;;11.43;10.82;;;;;;;;;;5030777;28;20093;-60
2024/01/03 04:05:20;;;;;;;12.43;11.73;;;;;;;;;;5032885;28;20519;-61
2024/01/03 04:07:46;;;;;;;10.88;10.38;;;;;;;;;;5023700;28;20112;-61
2024/01/03 04:10:11;;;;;;;10.80;10.30;;;;;;;;;;5035163;28;20488;-61
2024/01/03 04:12:38;;;;;;;10.95;10.45;;;;;;;;;;5035764;28;20057;-62
2024/01/03 04:15:04;;;;;;;10.98;10.48;;;;;;;;;;5032110;28;20507;-62
2024/01/03 04:17:29;;;;;;;11.45;10.85;;;;;;;;;;5036497;28;20045;-62
2024/01/03 04:19:55;;;;;;;11.00;10.50;;;;;;;;;;5037375;28;20570;-62
2024/01/03 04:22:21;;;;;;;11.52;10.93;;;;;;;;;;5031109;28;20320;-61
2024/01/03 04:24:46;;;;;;;11.30;10.70;;;;;;;;;;5029233;28;20054;-60
2024/01/03 04:27:12;;;;;;;11.77;11.18;;;;;;;;;;5036364;28;20013;-62
2024/01/03 04:29:37;;;;;;;11.10;10.60;;;;;;;;;;5029903;28;20442;-61
2024/01/03 04:32:02;;;;;;;11.48;10.88;;;;;;;;;;5024024;28;20598;-62
2024/01/03 04:34:28;;;;;;;11.10;10.60;;;;;;;;;;5029973;28;20500;-62
2024/01/03 04:36:53;;;;;;;10.63;10.13;;;;;;;;;;5031136;28;20057;-61
2024/01/03 04:39:18;;;;;;;10.25;9.75;;;;;;;;;;5030250;28;20034;-62
2024/01/03 04:41:44;;;;;;;10.75;10.25;;;;;;;;;;5024303;28;20034;-62
2024/01/03 04:44:09;;;;;;;10.70;10.20;;;;;;;;;;5030603;28;20022;-61
2024/01/03 04:46:34;;;;;;;11.60;11.00;;;;;;;;;;5033361;28;20049;-61
2024/01/03 04:49:00;;;;;;;11.30;10.70;;;;;;;;;;5034022;28;20025;-62
2024/01/03 04:51:25;;;;;;;11.02;10.52;;;;;;;;;;5035932;28;20025;-61
2024/01/03 04:53:51;;;;;;;10.50;10.00;;;;;;;;;;5038164;28;20105;-61
2024/01/03 04:56:16;;;;;;;10.60;10.10;;;;;;;;;;5036767;28;20092;-62
2024/01/03 04:58:42;;;;;;;10.73;10.23;;;;;;;;;;5034454;28;20025;-61
2024/01/03 05:01:07;;;;;;;10.60;10.10;;;;;;;;;;5036030;28;20017;-60
2024/01/03 05:03:32;;;;;;;11.27;10.68;;;;;;;;;;5035489;28;20018;-62
2024/01/03 05:05:58;;;;;;;10.70;10.20;;;;;;;;;;5029630;28;20039;-60
2024/01/03 05:08:23;;;;;;;10.40;9.90;;;;;;;;;;5034191;28;20041;-61
2024/01/03 05:10:48;;;;;;;10.80;10.30;;;;;;;;;;5035042;28;20030;-60
2024/01/03 05:13:14;;;;;;;10.50;10.00;;;;;;;;;;5034499;28;20059;-62
2024/01/03 05:15:39;;;;;;;11.07;10.57;;;;;;;;;;5034205;28;20036;-63
2024/01/03 05:18:04;;;;;;;11.20;10.65;;;;;;;;;;5025873;28;20077;-60
2024/01/03 05:20:29;;;;;;;10.75;10.25;;;;;;;;;;5045656;28;20021;-61
2024/01/03 05:22:55;;;;;;;11.05;10.55;;;;;;;;;;5033512;28;20052;-60
2024/01/03 05:25:20;;;;;;;11.43;10.82;;;;;;;;;;5036482;28;20057;-62
2024/01/03 05:27:46;;;;;;;10.73;10.23;;;;;;;;;;5037773;28;20456;-61
2024/01/03 05:30:11;;;;;;;10.85;10.35;;;;;;;;;;5029166;28;20105;-62
2024/01/03 05:32:37;;;;;;;11.52;10.93;;;;;;;;;;5033645;28;20030;-62
2024/01/03 05:35:02;;;;;;;10.90;10.40;;;;;;;;;;5032757;28;20032;-63
2024/01/03 05:37:28;;;;;;;12.15;11.55;;;;;;;;;;5033351;28;20050;-62
2024/01/03 05:39:53;;;;;;;11.52;10.95;;;;;;;;;;5033256;28;20104;-65
2024/01/03 05:42:18;;;;;;;11.15;10.65;;;;;;;;;;5033386;28;20033;-61
2024/01/03 05:44:43;;;;;;;11.10;10.60;;;;;;;;;;5033665;28;20017;-60
2024/01/03 05:47:09;;;;;;;11.35;10.80;;;;;;;;;;5026647;28;20385;-62
2024/01/03 05:49:34;;;;;;;11.10;10.60;;;;;;;;;;5033681;28;20048;-61
2024/01/03 05:52:00;;;;;;;11.23;10.73;;;;;;;;;;5038796;28;20025;-62
2024/01/03 05:54:26;;;;;;;10.90;10.40;;;;;;;;;;5039464;28;20021;-61
2024/01/03 05:56:52;;;;;;;11.35;10.82;;;;;;;;;;5039487;28;20039;-62
2024/01/03 05:59:17;;;;;;;11.25;10.75;;;;;;;;;;5027340;28;20036;-61
2024/01/03 06:01:45;;;;;;;12.00;11.40;;;;;;;;;;5024829;28;20488;-61
2024/01/03 06:04:10;;;;;;;11.27;10.77;;;;;;;;;;5032747;28;20080;-61
2024/01/03 06:06:36;;;;;;;11.77;11.18;;;;;;;;;;5026224;28;20382;-61
2024/01/03 06:09:01;;;;;;;13.07;12.38;;;;;;;;;;5033158;28;20029;-62
2024/01/03 06:11:26;;;;;;;11.48;10.90;;;;;;;;;;5032713;28;20388;-62
2024/01/03 06:13:52;;;;;;;11.35;10.80;;;;;;;;;;5032948;28;20064;-61
2024/01/03 06:16:17;;;;;;;11.10;10.60;;;;;;;;;;5032604;28;20046;-62
2024/01/03 06:18:42;;;;;;;11.75;11.15;;;;;;;;;;5024020;28;20029;-61
2024/01/03 06:21:11;;;;;;;11.10;10.60;;;;;;;;;;5029079;28;20022;-60
2024/01/03 06:23:37;;;;;;;11.10;10.60;;;;;;;;;;5024462;28;20392;-62
2024/01/03 06:26:03;;;;;;;11.10;10.60;;;;;;;;;;5029686;28;20025;-62
2024/01/03 06:28:28;;;;;;;10.75;10.25;;;;;;;;;;5035082;28;20052;-61
2024/01/03 06:30:53;;;;;;;11.18;10.68;;;;;;;;;;5023255;28;20022;-62
2024/01/03 06:33:19;;;;;;;11.63;11.02;;;;;;;;;;5034063;28;20104;-62
2024/01/03 06:35:44;;;;;;;11.25;10.75;;;;;;;;;;5033850;28;20056;-61
2024/01/03 06:38:09;;;;;;;12.02;11.43;;;;;;;;;;5031917;28;20474;-62
2024/01/03 06:40:35;;;;;;;11.35;10.85;;;;;;;;;;5034183;28;20421;-61
2024/01/03 06:43:00;;;;;;;11.93;11.32;;;;;;;;;;5032049;28;20021;-62
2024/01/03 06:45:25;;;;;;;11.77;11.18;;;;;;;;;;5024049;28;20489;-61
2024/01/03 06:47:51;;;;;;;11.73;11.13;;;;;;;;;;5030471;28;20491;-62
2024/01/03 06:50:16;;;;;;;11.90;11.30;;;;;;;;;;5029917;28;20017;-61
2024/01/03 06:52:42;;;;;;;11.32;10.82;;;;;;;;;;5028521;28;20418;-63
2024/01/03 06:55:07;;;;;;;11.73;11.13;;;;;;;;;;5028395;28;20029;-63
2024/01/03 06:57:33;;;;;;;11.82;11.23;;;;;;;;;;5026933;28;20025;-61
2024/01/03 06:59:58;;;;;;;11.63;11.02;;;;;;;;;;5029028;28;20140;-61
2024/01/03 07:02:24;;;;;;;11.32;10.82;;;;;;;;;;5028588;28;20079;-61
2024/01/03 07:04:50;;;;;;;11.90;11.30;;;;;;;;;;5030745;28;20018;-61
2024/01/03 07:07:17;;;;;;;12.18;11.57;;;;;;;;;;5027258;28;20051;-61
2024/01/03 07:09:42;;;;;;;12.23;11.63;;;;;;;;;;5026190;28;20100;-62
2024/01/03 07:12:07;;;;;;;11.80;11.20;;;;;;;;;;5028559;28;20481;-61
2024/01/03 07:14:33;;;;;;;11.27;10.77;;;;;;;;;;5034639;28;20017;-61
2024/01/03 07:16:58;;;;;;;11.70;11.10;;;;;;;;;;5029295;28;20392;-62
2024/01/03 07:19:24;;;;;;;11.75;11.15;;;;;;;;;;5030887;28;20047;-62
2024/01/03 07:21:49;;;;;;;12.35;11.75;;;;;;;;;;5031743;28;20025;-62
2024/01/03 07:24:15;;;;;;;11.10;10.60;;;;;;;;;;5029949;28;20014;-62
2024/01/03 07:26:40;;;;;;;11.82;11.23;;;;;;;;;;5025048;28;20045;-61
2024/01/03 07:29:06;;;;;;;12.18;11.57;;;;;;;;;;5031374;28;20117;-62
2024/01/03 07:31:32;;;;;;;11.75;11.15;;;;;;;;;;5020401;28;20704;-62
2024/01/03 07:33:57;;;;;;;11.80;11.20;;;;;;;;;;5026474;28;20017;-62
2024/01/03 07:36:23;;;;;;;11.73;11.13;;;;;;;;;;5025620;28;20328;-61
2024/01/03 07:38:48;;;;;;;12.00;11.40;;;;;;;;;;5027019;28;20040;-62
2024/01/03 07:41:17;;;;;;;11.23;10.73;;;;;;;;;;5027431;28;20025;-62
2024/01/03 07:43:43;;;;;;;11.80;11.20;;;;;;;;;;5029801;28;20052;-61
2024/01/03 07:46:09;;;;;;;12.50;11.90;;;;;;;;;;5020697;28;20022;-62
2024/01/03 07:48:34;;;;;;;12.25;11.65;;;;;;;;;;5025483;28;20040;-63
2024/01/03 07:50:59;;;;;;;11.93;11.32;;;;;;;;;;5023857;28;20578;-63
2024/01/03 07:53:25;;;;;;;12.30;11.70;;;;;;;;;;5031071;28;20024;-62
2024/01/03 07:55:50;;;;;;;11.23;10.73;;;;;;;;;;5025880;28;20112;-63
2024/01/03 07:58:15;;;;;;;11.15;10.65;;;;;;;;;;5029953;28;20225;-62
2024/01/03 08:00:41;;;;;;;12.00;11.40;;;;;;;;;;5030646;28;20617;-62
2024/01/03 08:03:06;;;;;;;12.40;11.80;;;;;;;;;;5027112;28;20693;-62
2024/01/03 08:05:31;;;;;;;11.90;11.30;;;;;;;;;;5029861;28;20018;-62
2024/01/03 08:07:57;;;;;;;11.50;10.98;;;;;;;;;;5026147;28;20101;-63
2024/01/03 08:10:22;;;;;;;11.32;10.82;;;;;;;;;;5033089;28;20496;-64
2024/01/03 08:12:47;;;;;;;11.85;11.25;;;;;;;;;;5023563;28;20477;-65
2024/01/03 08:15:14;;;;;;;12.32;11.73;;;;;;;;;;5026967;28;20025;-64
2024/01/03 08:17:40;;;;;;;12.43;11.82;;;;;;;;;;5023277;28;20041;-63
2024/01/03 08:20:05;;;;;;;11.88;11.27;;;;;;;;;;5028076;28;20084;-64
2024/01/03 08:22:31;;;;;;;12.00;11.40;;;;;;;;;;5028068;28;20272;-64
2024/01/03 08:24:56;;;;;;;12.00;11.40;;;;;;;;;;5030837;28;20025;-65
2024/01/03 08:27:22;;;;;;;12.30;11.70;;;;;;;;;;5028596;28;20070;-64
2024/01/03 08:29:48;;;;;;;12.32;11.73;;;;;;;;;;5026324;28;20068;-64
2024/01/03 08:32:13;;;;;;;12.70;12.10;;;;;;;;;;5023403;28;20049;-65
2024/01/03 08:34:39;;;;;;;12.02;11.43;;;;;;;;;;5022920;28;20033;-67
2024/01/03 08:37:04;;;;;;;11.90;11.30;;;;;;;;;;5027032;28;20033;-68
2024/01/03 08:39:29;;;;;;;11.73;11.15;;;;;;;;;;5027281;28;20135;-64
2024/01/03 08:41:55;;;;;;;12.18;11.57;;;;;;;;;;5027780;28;20104;-65
2024/01/03 08:44:20;;;;;;;12.15;11.55;;;;;;;;;;5028031;28;20025;-66
2024/01/03 08:46:46;;;;;;;12.00;11.40;;;;;;;;;;5024064;28;20117;-64
2024/01/03 08:49:12;;;;;;;12.05;11.45;;;;;;;;;;5021972;28;20041;-65
2024/01/03 08:51:37;;;;;;;12.48;11.88;;;;;;;;;;5027785;28;20033;-65
2024/01/03 08:54:03;;;;;;;12.00;11.40;;;;;;;;;;5021792;28;20039;-65
2024/01/03 08:56:28;;;;;;;11.55;11.05;;;;;;;;;;5028331;28;20033;-66
2024/01/03 08:58:54;;;;;;;11.43;10.93;;;;;;;;;;5023131;28;20076;-63
2024/01/03 09:01:20;;;;;;;12.07;11.48;;;;;;;;;;5024942;28;20389;-65
2024/01/03 09:03:46;;;;;;;12.05;11.45;;;;;;;;;;5024442;28;20024;-66
2024/01/03 09:06:12;;;;;;;12.32;11.73;;;;;;;;;;5028056;28;20104;-63
2024/01/03 09:08:37;;;;;;;12.02;11.43;;;;;;;;;;5025532;28;20033;-63
2024/01/03 09:11:12;;;;;;;12.02;11.43;;;;;;;;;;5027272;28;20480;-63
2024/01/03 09:13:38;;;;;;;12.38;11.77;;;;;;;;;;5028241;28;20485;-65
2024/01/03 09:16:09;;;;;;;12.20;11.60;;;;;;;;;;5028788;28;20112;-66
2024/01/03 09:18:36;;;;;;;11.82;11.27;;;;;;;;;;5025825;28;20507;-66
2024/01/03 09:21:04;;;;;;;12.35;11.75;;;;;;;;;;5027405;28;20021;-65
2024/01/03 09:23:30;;;;;;;12.52;11.93;;;;;;;;;;5026325;28;20047;-66
2024/01/03 09:25:56;;;;;;;12.10;11.50;;;;;;;;;;5020448;28;20022;-65
2024/01/03 09:28:21;;;;;;;12.10;11.50;;;;;;;;;;5028737;28;20037;-65
2024/01/03 09:30:47;;;;;;;12.77;12.18;;;;;;;;;;5026895;28;20127;-65
2024/01/03 09:33:12;;;;;;;13.27;12.57;;;;;;;;;;5030258;28;20165;-65
2024/01/03 09:35:38;;;;;;;12.93;12.32;;;;;;;;;;5031399;28;20087;-65
2024/01/03 09:38:04;;;;;;;12.90;12.30;;;;;;;;;;5029363;28;20554;-66
2024/01/03 09:40:31;;;;;;;12.35;11.75;;;;;;;;;;5031108;28;20105;-66
2024/01/03 09:42:57;;;;;;;12.38;11.77;;;;;;;;;;5029426;28;20052;-67
2024/01/03 09:45:22;;;;;;;12.10;11.50;;;;;;;;;;5029723;28;20029;-65
2024/01/03 09:47:48;;;;;;;12.30;11.70;;;;;;;;;;5031610;28;20099;-65
2024/01/03 09:50:13;;;;;;;12.40;11.80;;;;;;;;;;5030110;28;20510;-65
2024/01/03 09:52:39;;;;;;;12.40;11.80;;;;;;;;;;5030833;28;20075;-66
2024/01/03 09:55:07;;;;;;;12.27;11.68;;;;;;;;;;5027405;28;20778;-64
2024/01/03 09:57:33;;;;;;;12.65;12.05;;;;;;;;;;5023655;28;20013;-66
2024/01/03 09:59:58;;;;;;;12.80;12.20;;;;;;;;;;5029027;28;20565;-66
2024/01/03 10:02:27;;;;;;;12.38;11.77;;;;;;;;;;5048267;28;20045;-65
2024/01/03 10:04:53;;;;;;;12.98;12.38;;;;;;;;;;5028089;28;20024;-65
2024/01/03 10:07:30;;;;;;;12.57;11.98;;;;;;;;;;5023945;28;20021;-67
2024/01/03 10:09:56;;;;;;;11.80;11.30;;;;;;;;;;5031991;28;20018;-66
2024/01/03 10:12:22;;;;;;;12.82;12.23;;;;;;;;;;5019179;28;20072;-65
2024/01/03 10:14:47;;;;;;;12.88;12.27;;;;;;;;;;5019820;28;20462;-65
2024/01/03 10:17:13;;;;;;;12.45;11.85;;;;;;;;;;5013913;28;20061;-66
2024/01/03 10:19:38;;;;;;;12.23;11.63;;;;;;;;;;5027712;28;20611;-64
2024/01/03 10:22:04;;;;;;;12.20;11.60;;;;;;;;;;5031539;28;20025;-66
2024/01/03 10:24:31;;;;;;;12.25;11.65;;;;;;;;;;5035051;28;20017;-65
2024/01/03 10:27:17;;;;;;;12.38;11.77;;;;;;;;;;5031407;28;20092;-67
2024/01/03 10:29:43;;;;;;;12.30;11.70;;;;;;;;;;5021764;28;20037;-66
2024/01/03 10:32:11;;;;;;;12.07;11.48;;;;;;;;;;5028534;28;20167;-63
2024/01/03 10:34:37;;;;;;;12.98;12.38;;;;;;;;;;5017076;28;20034;-67
2024/01/03 10:37:04;;;;;;;13.48;12.77;;;;;;;;;;5014837;28;20071;-66
2024/01/03 10:39:31;;;;;;;13.27;12.63;;;;;;;;;;5019392;28;20127;-64
2024/01/03 10:41:56;;;;;;;13.02;12.40;;;;;;;;;;5016265;28;20144;-65
2024/01/03 10:44:22;;;;;;;12.80;12.20;;;;;;;;;;5017945;28;20552;-65
2024/01/03 10:46:48;;;;;;;12.35;11.75;;;;;;;;;;5016702;28;20121;-67
2024/01/03 10:49:13;;;;;;;12.70;12.10;;;;;;;;;;5026528;28;20021;-68
2024/01/03 10:51:43;;;;;;;12.82;12.23;;;;;;;;;;5019113;28;20585;-64
2024/01/03 10:54:10;;;;;;;12.50;11.90;;;;;;;;;;5019040;28;20033;-66
2024/01/03 10:56:36;;;;;;;13.60;12.90;;;;;;;;;;5020308;28;20501;-65
2024/01/03 10:59:02;;;;;;;13.68;12.98;;;;;;;;;;5013904;28;20120;-65
2024/01/03 11:01:29;;;;;;;13.70;13.00;;;;;;;;;;5012624;28;20121;-65
2024/01/03 11:04:04;;;;;;;14.05;13.35;;;;;;;;;;5019805;28;20021;-66
2024/01/03 11:06:32;;;;;;;13.88;13.18;;;;;;;;;;5013676;28;20032;-66
2024/01/03 11:08:58;;;;;;;12.93;12.32;;;;;;;;;;5027832;28;20049;-67
2024/01/03 11:11:30;;;;;;;13.75;13.05;;;;;;;;;;5017319;28;20517;-67
2024/01/03 11:13:57;;;;;;;13.27;12.60;;;;;;;;;;5023514;28;20029;-66
2024/01/03 11:16:36;;;;;;;13.00;12.40;;;;;;;;;;5012917;28;20121;-69
2024/01/03 11:19:02;;;;;;;12.80;12.20;;;;;;;;;;5022916;28;20037;-67
2024/01/03 11:21:27;;;;;;;13.23;12.55;;;;;;;;;;5014222;28;20107;-69
2024/01/03 11:23:55;;;;;;;12.50;11.90;;;;;;;;;;5014837;28;20060;-66
2024/01/03 11:26:40;;;;;;;12.07;11.48;;;;;;;;;;5025142;28;20050;-66
2024/01/03 11:29:05;;;;;;;13.30;12.60;;;;;;;;;;5023581;28;20029;-65
2024/01/03 11:31:50;;;;;;;12.77;12.18;;;;;;;;;;5021141;28;20028;-66
2024/01/03 11:34:44;;;;;;;12.40;11.80;;;;;;;;;;5026621;28;20056;-67
2024/01/03 11:37:12;;;;;;;12.35;11.75;;;;;;;;;;5016037;28;20021;-66
2024/01/03 11:39:42;;;;;;;13.32;12.65;;;;;;;;;;5017136;28;20033;-66
2024/01/03 11:42:08;;;;;;;13.98;13.27;;;;;;;;;;5015712;28;20057;-68
2024/01/03 11:44:33;;;;;;;11.90;11.30;;;;;;;;;;5021961;28;20017;-68
2024/01/03 11:46:59;;;;;;;13.13;12.48;;;;;;;;;;5016763;28;20030;-65
2024/01/03 11:49:24;;;;;;;12.07;11.48;;;;;;;;;;5024703;28;20021;-67
2024/01/03 11:51:50;;;;;;;13.35;12.65;;;;;;;;;;5018528;28;20028;-65
2024/01/03 11:54:15;;;;;;;13.27;12.57;;;;;;;;;;5019877;28;20030;-66
2024/01/03 11:56:41;;;;;;;13.43;12.73;;;;;;;;;;5018852;28;20022;-66
2024/01/03 11:59:06;;;;;;;12.90;12.30;;;;;;;;;;5016520;28;20060;-65
2024/01/03 12:01:32;;;;;;;12.43;11.82;;;;;;;;;;5026033;28;20040;-67
2024/01/03 12:04:10;;;;;;;13.68;12.98;;;;;;;;;;5015678;28;20025;-68
2024/01/03 12:06:36;;;;;;;12.07;11.48;;;;;;;;;;5022096;28;20029;-68
2024/01/03 12:09:02;;;;;;;13.40;12.70;;;;;;;;;;5019329;28;20051;-67
2024/01/03 12:11:28;;;;;;;13.68;12.98;;;;;;;;;;5013201;28;20029;-68
2024/01/03 12:13:54;;;;;;;13.35;12.65;;;;;;;;;;5023022;28;20060;-66
2024/01/03 12:16:19;;;;;;;13.82;13.13;;;;;;;;;;5013969;28;20112;-65
2024/01/03 12:18:51;;;;;;;12.90;12.30;;;;;;;;;;5021651;28;20071;-67
2024/01/03 12:21:17;;;;;;;12.13;11.52;;;;;;;;;;5017116;28;20731;-67
2024/01/03 12:23:55;;;;;;;12.95;12.35;;;;;;;;;;5016609;28;20037;-66
2024/01/03 12:26:21;;;;;;;13.55;12.85;;;;;;;;;;5020177;28;20034;-66
2024/01/03 12:28:46;;;;;;;12.18;11.57;;;;;;;;;;5018029;28;20030;-67
2024/01/03 12:31:18;;;;;;;13.82;13.13;;;;;;;;;;5012063;28;20921;-65
2024/01/03 12:33:43;;;;;;;13.20;12.52;;;;;;;;;;5015372;28;20571;-67
2024/01/03 12:36:09;;;;;;;12.57;11.98;;;;;;;;;;5013993;28;20026;-64
2024/01/03 12:38:34;;;;;;;13.30;12.60;;;;;;;;;;5014048;28;20111;-64
2024/01/03 12:40:59;;;;;;;13.43;12.73;;;;;;;;;;5015426;28;20025;-64
2024/01/03 12:43:25;;;;;;;13.70;13.00;;;;;;;;;;5013430;28;20163;-65
2024/01/03 12:45:50;;;;;;;13.43;12.73;;;;;;;;;;5015356;28;20032;-65
2024/01/03 12:48:16;;;;;;;12.85;12.25;;;;;;;;;;5017014;28;20080;-64
2024/01/03 12:50:42;;;;;;;12.80;12.20;;;;;;;;;;5015954;28;20105;-64
2024/01/03 12:53:07;;;;;;;13.27;12.57;;;;;;;;;;5020210;28;20048;-64
2024/01/03 12:55:33;;;;;;;13.63;12.93;;;;;;;;;;5011555;28;20354;-64
2024/01/03 12:57:58;;;;;;;12.77;12.18;;;;;;;;;;5016394;28;21079;-64
2024/01/03 13:00:23;;;;;;;13.20;12.50;;;;;;;;;;5019209;28;20083;-66
2024/01/03 13:02:49;;;;;;;12.55;11.95;;;;;;;;;;5017228;28;20060;-67
2024/01/03 13:05:14;;;;;;;13.60;12.90;;;;;;;;;;5015784;28;20042;-66
2024/01/03 13:07:39;;;;;;;14.05;13.35;;;;;;;;;;5018319;28;20025;-67
2024/01/03 13:10:06;;;;;;;13.20;12.50;;;;;;;;;;5023409;28;20033;-68
2024/01/03 13:12:32;;;;;;;13.65;12.95;;;;;;;;;;5020258;28;20032;-67
2024/01/03 13:14:57;;;;;;;12.00;11.40;;;;;;;;;;5020887;28;20116;-69
2024/01/03 13:17:24;;;;;;;12.00;11.40;;;;;;;;;;5034335;28;20120;-67
2024/01/03 13:19:49;;;;;;;12.73;12.13;;;;;;;;;;5031457;28;20523;-67
2024/01/03 13:22:15;;;;;;;12.38;11.77;;;;;;;;;;5017477;28;20033;-67
2024/01/03 13:24:41;;;;;;;12.43;11.82;;;;;;;;;;5023786;28;20442;-66
2024/01/03 13:27:07;;;;;;;13.43;12.73;;;;;;;;;;5018717;28;20024;-67
2024/01/03 13:29:33;;;;;;;13.40;12.70;;;;;;;;;;5017704;28;20017;-65
2024/01/03 13:31:58;;;;;;;13.40;12.70;;;;;;;;;;5022168;28;20115;-66
2024/01/03 13:34:24;;;;;;;12.90;12.30;;;;;;;;;;5028216;28;20841;-66
2024/01/03 13:36:50;;;;;;;12.65;12.05;;;;;;;;;;5019689;28;20037;-69
2024/01/03 13:39:15;;;;;;;13.07;12.40;;;;;;;;;;5021166;28;20030;-66
2024/01/03 13:41:40;;;;;;;12.43;11.82;;;;;;;;;;5015472;28;20109;-66
2024/01/03 13:44:06;;;;;;;12.80;12.20;;;;;;;;;;5017225;28;20029;-67
2024/01/03 13:46:31;;;;;;;12.45;11.85;;;;;;;;;;5020198;28;20037;-68
2024/01/03 13:48:56;;;;;;;12.70;12.10;;;;;;;;;;5026070;28;20057;-66
2024/01/03 13:51:22;;;;;;;12.75;12.15;;;;;;;;;;5020046;28;20427;-66
2024/01/03 13:53:48;;;;;;;11.57;11.07;;;;;;;;;;5023798;28;20053;-66
2024/01/03 13:56:17;;;;;;;13.50;12.80;;;;;;;;;;5026337;28;20033;-64
2024/01/03 13:58:45;;;;;;;13.23;12.52;;;;;;;;;;5024682;28;20124;-65
2024/01/03 14:01:10;;;;;;;13.30;12.60;;;;;;;;;;5017243;28;20064;-65
2024/01/03 14:03:36;;;;;;;13.35;12.65;;;;;;;;;;5018132;28;20448;-65
2024/01/03 14:06:02;;;;;;;12.20;11.60;;;;;;;;;;5020561;28;20699;-66
2024/01/03 14:08:27;;;;;;;13.25;12.55;;;;;;;;;;5023182;28;20083;-64
2024/01/03 14:10:52;;;;;;;12.82;12.23;;;;;;;;;;5019093;28;20033;-67
2024/01/03 14:13:18;;;;;;;13.25;12.55;;;;;;;;;;5022158;28;20075;-67